Pagrindinis puslapis
METAR-TAF:

METAR-TAF

Oro uostai :

Tukumanas, Argentina

platuma: 26-51S, ilguma: 065-06W, Aukštis: 440 m

Dabartinis oras

Ataskaita buvo paskelbta 1 valandą ir 6 minutes, ne 10:00 UTC
Vėjas 2 kt iš Pietų
Temperatūra 12°C
Drėgmė 82%
Slėgis 1023 hPa
Matomumas 10 km arba daugiau
nėra debesų žemiau 1500 m ir nėra kamuolinių lietaus debesų

METAR: SANT 311000Z 18002KT CAVOK 12/09 Q1023

Laikas: 08:06 (11:06 UTC)

Prognozė

Ataskaita buvo paskelbta 6 valandos ir 6 minutes, ne 05:00 UTC
Prognozė galioja nuo 31 metu 06 UTC su 01 metu 06 UTC
Vėjas 5 kt iš Pietų
Matomumas 10 km arba daugiau
Apsiniaukę ne aukštis 3500 ft
Tapsmas
nuo 31 metu 09 UTC su 31 metu 11 UTC
Vėjas 5 kt iš Rytų
Su prošvaistėmis ne aukštis 4000 ft
Su prošvaistėmis ne aukštis 10000 ft
Tapsmas
nuo 31 metu 14 UTC su 31 metu 16 UTC
Matomumas: 5000 m
Išsisklaidę debesys ne aukštis 4000 ft
dūmai

TAF: SANT 310500Z 3106/0106 18005KT 9999 OVC035 TX19/3118Z TN07/3110Z BECMG 3109/3111 09005KT BKN040 BKN100 BECMG 3114/3116 5000 FU SCT040

Orai ataskaitas ir orų prognozės (METAR, TAF).

turimą stotys yra geltonos ir raudonos taškus žemėlapyje.

Perkelti pele per norėdami pamatyti stoties vardą.

Tada spustelėkite, norėdami matyti oro stebėjimo ir prognozės.

Norėdami pakeisti žemėlapį: spustelėkite ant žalios mygtukų su juodo kryžiaus žemyn,; žalią mygtuką su brūkšneliu, jei norite nutolinti; arba žalių rodyklių gretimoms žemėlapius.


METAR-TAF: